createdAt,value
2018-12-06T00:00:01.739Z,82.17
2018-12-06T00:02:33.508Z,82.03
2018-12-06T00:05:04.952Z,82.38
2018-12-06T00:07:35.543Z,81.83
2018-12-06T00:10:07.246Z,82.28
2018-12-06T00:12:37.874Z,82.49
2018-12-06T00:15:27.890Z,82.25
2018-12-06T00:17:58.469Z,82.91
2018-12-06T00:20:29.063Z,82.56
2018-12-06T00:22:59.652Z,82.70
2018-12-06T00:25:30.214Z,82.69
2018-12-06T00:28:00.813Z,83.00
2018-12-06T00:30:39.206Z,83.60
2018-12-06T00:33:10.026Z,83.66
2018-12-06T00:35:40.606Z,83.72
2018-12-06T00:38:11.180Z,83.19
2018-12-06T00:40:41.982Z,83.26
2018-12-06T00:43:12.585Z,82.60
2018-12-06T00:45:43.158Z,83.10
2018-12-06T00:48:14.055Z,83.40
2018-12-06T00:50:44.634Z,83.93
2018-12-06T00:53:15.202Z,84.32
2018-12-06T00:55:45.765Z,84.75
2018-12-06T00:58:16.656Z,85.13
2018-12-06T01:00:47.245Z,85.17
2018-12-06T01:03:19.142Z,85.62
2018-12-06T01:05:49.694Z,84.98
2018-12-06T01:08:20.284Z,85.77
2018-12-06T01:10:50.974Z,85.91
2018-12-06T01:13:21.990Z,85.89
2018-12-06T01:15:52.555Z,87.02
2018-12-06T01:18:23.614Z,87.16
2018-12-06T01:20:54.198Z,87.33
2018-12-06T01:23:24.765Z,87.53
2018-12-06T01:25:55.325Z,88.33
2018-12-06T01:28:25.953Z,87.90
2018-12-06T01:30:56.506Z,87.47
2018-12-06T01:33:27.086Z,88.39
2018-12-06T01:35:57.651Z,87.73
2018-12-06T01:38:28.238Z,88.04
2018-12-06T01:40:58.803Z,88.25
2018-12-06T01:43:29.393Z,88.11
2018-12-06T01:46:00.227Z,87.95
2018-12-06T01:48:31.471Z,87.51
2018-12-06T01:51:02.031Z,88.22
2018-12-06T01:53:32.590Z,87.47
2018-12-06T01:56:03.161Z,87.80
2018-12-06T01:58:33.705Z,87.61
2018-12-06T02:01:05.250Z,86.92
2018-12-06T02:03:35.802Z,86.93
2018-12-06T02:06:06.650Z,86.38
2018-12-06T02:08:37.198Z,86.78
2018-12-06T02:11:07.797Z,86.90
2018-12-06T02:13:38.346Z,86.43
2018-12-06T02:16:08.957Z,85.55
2018-12-06T02:18:39.539Z,85.79
2018-12-06T02:21:10.114Z,85.64
2018-12-06T02:23:40.675Z,84.83
2018-12-06T02:26:11.631Z,83.83
2018-12-06T02:28:42.194Z,84.33
2018-12-06T02:31:13.084Z,83.79
2018-12-06T02:33:43.883Z,84.23
2018-12-06T02:36:14.460Z,84.57
2018-12-06T02:38:45.045Z,84.33
2018-12-06T02:41:15.892Z,84.85
2018-12-06T02:43:47.962Z,85.10
2018-12-06T02:46:18.580Z,85.08
2018-12-06T02:48:49.468Z,85.04
2018-12-06T02:51:20.155Z,85.36
2018-12-06T02:53:50.869Z,85.30
2018-12-06T02:56:21.553Z,85.91
2018-12-06T02:58:52.155Z,85.76
2018-12-06T03:01:23.127Z,85.19
2018-12-06T03:03:53.995Z,85.58
2018-12-06T03:06:24.619Z,85.31
2018-12-06T03:08:55.598Z,85.72
2018-12-06T03:11:26.171Z,85.95
2018-12-06T03:13:57.101Z,86.25
2018-12-06T03:16:27.912Z,86.88
2018-12-06T03:18:58.721Z,86.83
2018-12-06T03:21:29.303Z,87.58
2018-12-06T03:23:59.877Z,86.60
2018-12-06T03:26:30.445Z,87.19
2018-12-06T03:29:02.598Z,86.74
2018-12-06T03:31:33.595Z,87.20
2018-12-06T03:34:04.872Z,86.57
2018-12-06T03:36:35.450Z,87.13
2018-12-06T03:39:08.473Z,87.28
2018-12-06T03:41:39.273Z,86.50
2018-12-06T03:44:09.867Z,86.22
2018-12-06T03:46:40.447Z,86.67
2018-12-06T03:49:11.033Z,86.47
2018-12-06T03:51:41.607Z,86.31
2018-12-06T03:54:12.684Z,85.78
2018-12-06T03:56:43.303Z,86.08
2018-12-06T03:59:13.881Z,86.32
2018-12-06T04:01:44.470Z,86.46
2018-12-06T04:04:15.058Z,85.80
2018-12-06T04:06:45.619Z,86.28
2018-12-06T04:09:16.269Z,86.26
2018-12-06T04:11:47.398Z,86.33
2018-12-06T04:14:18.043Z,86.06
2018-12-06T04:16:48.682Z,86.24
2018-12-06T04:19:19.325Z,86.46
2018-12-06T04:21:49.939Z,86.34
2018-12-06T04:24:20.930Z,85.79
2018-12-06T04:26:51.554Z,86.43
2018-12-06T04:29:22.219Z,86.16
2018-12-06T04:31:52.879Z,86.18
2018-12-06T04:34:23.592Z,86.39
2018-12-06T04:36:54.771Z,85.66
2018-12-06T04:39:25.460Z,85.67
2018-12-06T04:41:56.029Z,85.95
2018-12-06T04:44:26.731Z,85.91
2018-12-06T04:46:57.539Z,85.91
2018-12-06T04:49:28.311Z,86.26
2018-12-06T04:51:58.949Z,86.31
2018-12-06T04:54:29.642Z,86.19
2018-12-06T04:57:00.221Z,85.45
2018-12-06T04:59:30.841Z,85.22
2018-12-06T05:02:02.297Z,85.63
2018-12-06T05:04:32.820Z,85.78
2018-12-06T05:07:03.851Z,85.41
2018-12-06T05:09:34.450Z,85.61
2018-12-06T05:12:05.477Z,85.13
2018-12-06T05:14:36.043Z,85.18
2018-12-06T05:17:06.821Z,84.40
2018-12-06T05:19:37.388Z,84.76
2018-12-06T05:22:07.985Z,85.08
2018-12-06T05:24:38.547Z,84.74
2018-12-06T05:27:09.512Z,85.22
2018-12-06T05:29:40.089Z,84.92
2018-12-06T05:32:10.697Z,85.11
2018-12-06T05:34:41.268Z,85.02
2018-12-06T05:37:11.987Z,84.70
2018-12-06T05:39:43.567Z,84.35
2018-12-06T05:42:14.209Z,84.75
2018-12-06T05:44:44.822Z,85.31
2018-12-06T05:47:15.496Z,84.97
2018-12-06T05:49:46.300Z,84.97
2018-12-06T05:52:16.940Z,84.62
2018-12-06T05:54:47.514Z,84.57
2018-12-06T05:57:18.098Z,84.69
2018-12-06T05:59:49.733Z,84.35
2018-12-06T06:02:20.359Z,84.29
2018-12-06T06:04:51.002Z,84.70
2018-12-06T06:07:21.669Z,84.85
2018-12-06T06:09:52.402Z,84.20
2018-12-06T06:12:23.058Z,84.42
2018-12-06T06:14:53.794Z,84.63
2018-12-06T06:17:24.550Z,84.90
2018-12-06T06:19:55.845Z,84.26
2018-12-06T06:22:29.742Z,85.04
2018-12-06T06:25:00.307Z,84.66
2018-12-06T06:27:30.986Z,85.07
2018-12-06T06:30:01.599Z,85.33
2018-12-06T06:32:32.441Z,84.92
2018-12-06T06:35:03.050Z,85.28
2018-12-06T06:37:33.622Z,85.21
2018-12-06T06:40:04.563Z,85.13
2018-12-06T06:42:36.194Z,84.93
2018-12-06T06:45:07.818Z,85.17
2018-12-06T06:47:38.435Z,85.20
2018-12-06T06:50:09.571Z,85.37
2018-12-06T06:52:41.598Z,85.41
2018-12-06T06:55:12.131Z,84.77
2018-12-06T06:57:42.750Z,85.13
2018-12-06T07:00:14.706Z,84.40
2018-12-06T07:02:45.273Z,85.24
2018-12-06T07:05:15.845Z,85.06
2018-12-06T07:07:46.505Z,85.02
2018-12-06T07:10:17.176Z,84.64
2018-12-06T07:12:48.215Z,84.71
2018-12-06T07:15:19.108Z,84.93
2018-12-06T07:17:52.596Z,84.34
2018-12-06T07:20:23.198Z,84.90
2018-12-06T07:22:54.609Z,85.06
2018-12-06T07:25:25.214Z,85.10
2018-12-06T07:27:55.773Z,84.42
2018-12-06T07:30:26.492Z,84.10
2018-12-06T07:32:57.019Z,84.83
2018-12-06T07:35:27.845Z,84.18
2018-12-06T07:37:58.461Z,84.50
2018-12-06T07:40:29.334Z,84.97
2018-12-06T07:43:00.039Z,84.77
2018-12-06T07:45:30.695Z,84.47
2018-12-06T07:48:01.398Z,84.71
2018-12-06T07:50:32.074Z,84.64
2018-12-06T07:53:02.661Z,84.62
2018-12-06T07:55:34.123Z,84.78
2018-12-06T07:58:04.746Z,84.83
2018-12-06T08:00:35.322Z,84.65
2018-12-06T08:03:06.009Z,84.92
2018-12-06T08:05:36.861Z,85.23
2018-12-06T08:08:08.214Z,85.61
2018-12-06T08:10:38.875Z,84.90
2018-12-06T08:13:09.458Z,85.58
2018-12-06T08:15:42.191Z,85.51
2018-12-06T08:18:12.796Z,85.31
2018-12-06T08:20:43.419Z,85.77
2018-12-06T08:23:14.015Z,85.16
2018-12-06T08:25:45.175Z,85.82
2018-12-06T08:28:15.869Z,85.06
2018-12-06T08:30:47.410Z,84.85
2018-12-06T08:33:17.964Z,84.74
2018-12-06T08:35:48.542Z,85.79
2018-12-06T08:38:19.163Z,85.44
2018-12-06T08:40:51.422Z,85.48
2018-12-06T08:43:21.997Z,85.42
2018-12-06T08:45:52.615Z,85.02
2018-12-06T08:48:23.182Z,85.28
2018-12-06T08:50:53.860Z,85.17
2018-12-06T08:53:24.678Z,84.58
2018-12-06T08:55:55.304Z,84.86
2018-12-06T08:58:25.894Z,85.39
2018-12-06T09:00:56.502Z,85.05
2018-12-06T09:03:27.826Z,85.07
2018-12-06T09:05:58.574Z,85.55
2018-12-06T09:08:32.435Z,85.74
2018-12-06T09:11:03.039Z,85.37
2018-12-06T09:13:34.307Z,85.86
2018-12-06T09:16:05.526Z,85.77
2018-12-06T09:18:36.190Z,86.13
2018-12-06T09:21:06.811Z,85.87
2018-12-06T09:23:37.598Z,85.57
2018-12-06T09:26:10.582Z,85.43
2018-12-06T09:28:42.171Z,85.73
2018-12-06T09:31:12.949Z,85.70
2018-12-06T09:34:00.456Z,86.06
2018-12-06T09:36:32.531Z,85.71
2018-12-06T09:39:05.330Z,85.03
2018-12-06T09:41:36.131Z,85.62
2018-12-06T09:44:07.302Z,85.65
2018-12-06T09:46:38.092Z,85.12
2018-12-06T09:49:08.815Z,85.51
2018-12-06T09:51:39.707Z,85.09
2018-12-06T09:54:11.429Z,85.12
2018-12-06T09:56:42.178Z,85.09
2018-12-06T09:59:13.083Z,85.16
2018-12-06T10:01:44.307Z,86.00
2018-12-06T10:04:14.883Z,86.17
2018-12-06T10:06:45.587Z,85.83
2018-12-06T10:09:17.333Z,85.95
2018-12-06T10:11:47.919Z,85.60
2018-12-06T10:14:19.709Z,85.51
2018-12-06T10:16:50.686Z,85.71
2018-12-06T10:19:21.267Z,85.82
2018-12-06T10:21:51.978Z,85.87
2018-12-06T10:24:22.889Z,85.39
2018-12-06T10:26:53.722Z,85.64
2018-12-06T10:29:24.366Z,85.57
2018-12-06T10:31:54.998Z,86.07
2018-12-06T10:34:25.607Z,86.39
2018-12-06T10:36:56.373Z,86.27
2018-12-06T10:39:27.006Z,86.17
2018-12-06T10:41:57.950Z,86.33
2018-12-06T10:44:31.619Z,86.50
2018-12-06T10:47:02.899Z,86.87
2018-12-06T10:49:33.494Z,86.40
2018-12-06T10:52:04.981Z,86.52
2018-12-06T10:54:35.595Z,87.31
2018-12-06T10:57:06.855Z,87.48
2018-12-06T10:59:38.300Z,87.19
2018-12-06T11:02:14.058Z,87.09
2018-12-06T11:04:44.662Z,86.71
2018-12-06T11:07:15.283Z,86.45
2018-12-06T11:09:45.862Z,86.26
2018-12-06T11:12:16.578Z,86.84
2018-12-06T11:14:47.859Z,86.82
2018-12-06T11:17:18.437Z,86.68
2018-12-06T11:19:49.242Z,86.91
2018-12-06T11:22:20.059Z,86.48
2018-12-06T11:24:50.659Z,86.12
2018-12-06T11:27:22.298Z,86.68
2018-12-06T11:30:34.842Z,86.36
2018-12-06T11:33:06.949Z,86.91
2018-12-06T11:35:37.533Z,86.63
2018-12-06T11:38:08.614Z,87.15
2018-12-06T11:40:39.219Z,87.00
2018-12-06T11:43:10.297Z,86.72
2018-12-06T11:45:41.168Z,86.71
2018-12-06T11:48:11.798Z,86.86
2018-12-06T11:50:42.620Z,87.10
2018-12-06T11:53:13.507Z,87.20
2018-12-06T11:55:44.146Z,86.96
2018-12-06T11:58:14.752Z,86.83
2018-12-06T12:00:45.664Z,86.94
2018-12-06T12:03:16.487Z,87.10
2018-12-06T12:05:47.181Z,87.22
2018-12-06T12:08:17.840Z,87.20
2018-12-06T12:10:48.624Z,86.73
2018-12-06T12:13:22.286Z,87.13
2018-12-06T12:15:54.260Z,86.69
2018-12-06T12:18:24.852Z,86.71
2018-12-06T12:20:56.456Z,87.23
2018-12-06T12:23:27.809Z,87.04
2018-12-06T12:25:58.741Z,87.29
2018-12-06T12:28:29.398Z,87.62
2018-12-06T12:31:00.035Z,87.35
2018-12-06T12:33:30.693Z,87.97
2018-12-06T12:36:01.306Z,87.76
2018-12-06T12:38:31.889Z,88.19
2018-12-06T12:41:02.554Z,88.31
2018-12-06T12:43:33.137Z,88.79
2018-12-06T12:46:03.746Z,89.53
2018-12-06T12:48:34.342Z,89.76
2018-12-06T12:51:05.485Z,89.88
2018-12-06T12:53:36.230Z,89.79
2018-12-06T12:56:06.931Z,90.28
2018-12-06T12:58:37.524Z,90.36
2018-12-06T13:01:08.295Z,90.07
2018-12-06T13:03:38.890Z,90.54
2018-12-06T13:06:10.465Z,90.07
2018-12-06T13:08:41.027Z,89.90
2018-12-06T13:11:11.635Z,89.85
2018-12-06T13:13:42.203Z,89.98
2018-12-06T13:16:13.082Z,89.71
2018-12-06T13:18:44.066Z,89.36
2018-12-06T13:21:14.661Z,89.06
2018-12-06T13:23:45.255Z,89.23
2018-12-06T13:26:15.846Z,89.31
2018-12-06T13:28:47.400Z,88.75
2018-12-06T13:31:17.994Z,89.23
2018-12-06T13:33:48.629Z,88.41
2018-12-06T13:36:19.686Z,88.71
2018-12-06T13:38:50.351Z,88.33
2018-12-06T13:41:20.975Z,87.86
2018-12-06T13:43:52.147Z,87.87
2018-12-06T13:46:23.266Z,87.99
2018-12-06T13:48:54.410Z,87.76
2018-12-06T13:51:25.139Z,87.79
2018-12-06T13:53:56.661Z,87.43
2018-12-06T13:56:27.375Z,87.18
2018-12-06T13:58:58.631Z,87.18
2018-12-06T14:01:29.458Z,87.27
2018-12-06T14:04:00.343Z,87.19
2018-12-06T14:06:31.047Z,87.19
2018-12-06T14:09:01.746Z,87.15
2018-12-06T14:11:33.886Z,87.25
2018-12-06T14:14:05.083Z,87.16
2018-12-06T14:16:35.795Z,87.00
2018-12-06T14:19:06.494Z,87.02
2018-12-06T14:21:37.631Z,87.15
2018-12-06T14:24:08.203Z,87.38
2018-12-06T14:26:38.845Z,87.10
2018-12-06T14:29:09.442Z,87.33
2018-12-06T14:31:40.058Z,87.44
2018-12-06T14:34:11.716Z,87.26
2018-12-06T14:36:42.382Z,87.17
2018-12-06T14:39:12.972Z,87.74
2018-12-06T14:41:43.582Z,88.24
2018-12-06T14:44:14.237Z,88.00
2018-12-06T14:46:45.237Z,87.76
2018-12-06T14:49:16.172Z,87.68
2018-12-06T14:51:47.096Z,87.30
2018-12-06T14:54:18.886Z,87.80
2018-12-06T14:56:50.002Z,87.75
2018-12-06T14:59:22.735Z,87.89
2018-12-06T15:01:53.717Z,88.25
2018-12-06T15:04:24.443Z,87.86
2018-12-06T15:06:55.784Z,87.94
2018-12-06T15:09:27.522Z,87.62
2018-12-06T15:11:58.127Z,87.62
2018-12-06T15:14:28.805Z,87.49
2018-12-06T15:17:00.721Z,87.41
2018-12-06T15:19:31.586Z,87.71
2018-12-06T15:22:02.177Z,87.58
2018-12-06T15:24:33.176Z,87.93
2018-12-06T15:27:03.759Z,88.25
2018-12-06T15:29:34.409Z,88.12
2018-12-06T15:32:05.711Z,87.99
2018-12-06T15:34:37.133Z,87.20
2018-12-06T15:37:07.867Z,87.24
2018-12-06T15:39:38.707Z,87.79
2018-12-06T15:42:09.321Z,87.65
2018-12-06T15:44:39.956Z,87.21
2018-12-06T15:47:10.694Z,87.69
2018-12-06T15:49:41.310Z,87.98
2018-12-06T15:52:11.924Z,87.50
2018-12-06T15:54:42.896Z,87.97
2018-12-06T15:57:13.823Z,87.88
2018-12-06T15:59:44.470Z,87.97
2018-12-06T16:02:15.600Z,87.86
2018-12-06T16:04:46.254Z,88.25
2018-12-06T16:07:16.970Z,88.42
2018-12-06T16:09:47.591Z,88.49
2018-12-06T16:12:18.181Z,88.96
2018-12-06T16:14:48.886Z,88.85
2018-12-06T16:17:21.521Z,88.88
2018-12-06T16:19:52.227Z,88.93
2018-12-06T16:22:22.892Z,88.48
2018-12-06T16:24:53.638Z,88.95
2018-12-06T16:27:24.230Z,88.68
2018-12-06T16:29:55.743Z,88.42
2018-12-06T16:32:26.579Z,88.38
2018-12-06T16:34:57.199Z,88.74
2018-12-06T16:37:27.878Z,88.46
2018-12-06T16:39:58.654Z,88.24
2018-12-06T16:42:29.391Z,88.03
2018-12-06T16:45:00.522Z,88.35
2018-12-06T16:47:31.401Z,88.63
2018-12-06T16:50:02.093Z,88.49
2018-12-06T16:52:32.814Z,88.74
2018-12-06T16:55:03.457Z,88.42
2018-12-06T16:57:35.753Z,88.07
2018-12-06T17:00:14.579Z,87.98
2018-12-06T17:02:46.420Z,88.28
2018-12-06T17:05:17.165Z,88.17
2018-12-06T17:07:48.830Z,88.21
2018-12-06T17:10:19.431Z,88.46
2018-12-06T17:12:50.152Z,88.58
2018-12-06T17:15:20.788Z,88.62
2018-12-06T17:17:51.414Z,88.41
2018-12-06T17:20:22.159Z,88.11
2018-12-06T17:22:52.826Z,87.62
2018-12-06T17:25:23.419Z,87.55
2018-12-06T17:27:54.534Z,87.82
2018-12-06T17:30:25.151Z,87.50
2018-12-06T17:32:56.275Z,87.31
2018-12-06T17:35:28.071Z,87.28
2018-12-06T17:37:59.231Z,87.18
2018-12-06T17:40:30.479Z,86.75
2018-12-06T17:43:01.122Z,86.90
2018-12-06T17:45:32.684Z,86.63
2018-12-06T17:48:04.119Z,86.85
2018-12-06T17:50:35.154Z,86.47
2018-12-06T17:53:05.853Z,86.56
2018-12-06T17:55:49.978Z,86.51
2018-12-06T17:58:21.305Z,86.23
2018-12-06T18:00:52.159Z,86.50
2018-12-06T18:03:22.815Z,86.07
2018-12-06T18:05:53.523Z,85.69
2018-12-06T18:08:24.265Z,86.66
2018-12-06T18:10:55.097Z,86.87
2018-12-06T18:13:25.830Z,87.02
2018-12-06T18:15:56.446Z,87.16
2018-12-06T18:18:27.088Z,87.21
2018-12-06T18:20:58.969Z,86.77
2018-12-06T18:23:29.590Z,86.55
2018-12-06T18:26:00.211Z,86.61
2018-12-06T18:28:30.839Z,86.35
2018-12-06T18:31:01.529Z,86.68
2018-12-06T18:33:32.767Z,86.45
2018-12-06T18:36:03.494Z,87.19
2018-12-06T18:38:34.280Z,87.04
2018-12-06T18:41:05.674Z,87.46
2018-12-06T18:43:36.590Z,87.63
2018-12-06T18:46:07.211Z,87.74
2018-12-06T18:48:38.192Z,87.23
2018-12-06T18:51:08.767Z,86.98
2018-12-06T18:53:40.096Z,87.08
2018-12-06T18:56:11.986Z,87.35
2018-12-06T18:58:42.642Z,87.02
2018-12-06T19:01:13.660Z,86.45
2018-12-06T19:03:44.270Z,86.64
2018-12-06T19:06:15.269Z,86.68
2018-12-06T19:08:46.336Z,86.69
2018-12-06T19:11:17.785Z,86.86
2018-12-06T19:13:49.113Z,86.83
2018-12-06T19:16:20.282Z,86.78
2018-12-06T19:18:51.059Z,86.62
2018-12-06T19:21:22.313Z,86.25
2018-12-06T19:23:53.473Z,86.53
2018-12-06T19:26:24.634Z,86.37
2018-12-06T19:28:55.362Z,86.52
2018-12-06T19:31:26.710Z,86.73
2018-12-06T19:33:57.769Z,87.22
2018-12-06T19:36:29.106Z,86.87
2018-12-06T19:39:00.125Z,86.62
2018-12-06T19:41:30.790Z,86.22
2018-12-06T19:44:01.929Z,86.32
2018-12-06T19:46:32.940Z,86.36
2018-12-06T19:49:03.573Z,86.63
2018-12-06T19:51:34.967Z,86.92
2018-12-06T19:54:06.417Z,87.01
2018-12-06T19:56:37.594Z,87.11
2018-12-06T19:59:08.704Z,86.63
2018-12-06T20:01:39.745Z,86.54
2018-12-06T20:04:10.826Z,86.79
2018-12-06T20:06:42.225Z,86.69
2018-12-06T20:09:12.814Z,87.00
2018-12-06T20:11:43.917Z,86.90
2018-12-06T20:14:14.811Z,87.06
2018-12-06T20:16:46.842Z,86.81
2018-12-06T20:19:17.902Z,87.05
2018-12-06T20:21:48.729Z,87.21
2018-12-06T20:24:19.334Z,86.98
2018-12-06T20:26:50.515Z,87.31
2018-12-06T20:29:21.545Z,87.08
2018-12-06T20:31:52.652Z,87.00
2018-12-06T20:34:23.305Z,87.22
2018-12-06T20:36:54.155Z,87.29
2018-12-06T20:39:25.159Z,87.48
2018-12-06T20:41:55.890Z,87.26
2018-12-06T20:44:27.710Z,87.86
2018-12-06T20:46:58.342Z,88.31
2018-12-06T20:49:29.005Z,87.31
2018-12-06T20:52:01.251Z,87.53
2018-12-06T20:54:32.572Z,87.68
2018-12-06T20:57:03.248Z,87.44
2018-12-06T20:59:34.118Z,87.43
2018-12-06T21:02:05.698Z,87.17
2018-12-06T21:04:36.792Z,87.26
2018-12-06T21:07:07.531Z,87.20
2018-12-06T21:09:39.039Z,86.83
2018-12-06T21:12:10.290Z,86.84
2018-12-06T21:14:40.888Z,87.03
2018-12-06T21:17:12.120Z,86.63
2018-12-06T21:19:42.729Z,86.80
2018-12-06T21:22:13.496Z,86.48
2018-12-06T21:24:44.546Z,86.55
2018-12-06T21:27:15.337Z,86.76
2018-12-06T21:29:45.972Z,86.24
2018-12-06T21:32:16.613Z,85.90
2018-12-06T21:34:48.363Z,86.60
2018-12-06T21:37:19.018Z,86.40
2018-12-06T21:39:51.330Z,86.41
2018-12-06T21:42:22.509Z,86.02
2018-12-06T21:44:53.142Z,86.22
2018-12-06T21:47:25.803Z,86.19
2018-12-06T21:49:57.378Z,86.19
2018-12-06T21:52:27.993Z,86.58
2018-12-06T21:54:58.641Z,86.58
2018-12-06T21:57:29.230Z,86.47
2018-12-06T21:59:59.834Z,86.32
2018-12-06T22:02:30.433Z,85.91
2018-12-06T22:05:01.571Z,86.10
2018-12-06T22:07:32.652Z,86.43
2018-12-06T22:10:03.280Z,86.11
2018-12-06T22:12:33.865Z,86.26
2018-12-06T22:15:05.820Z,85.88
2018-12-06T22:17:36.473Z,85.90
2018-12-06T22:20:07.518Z,86.22
2018-12-06T22:22:38.136Z,86.00
2018-12-06T22:25:09.584Z,85.74
2018-12-06T22:27:40.174Z,86.00
2018-12-06T22:30:11.798Z,85.68
2018-12-06T22:32:42.685Z,85.66
2018-12-06T22:35:13.274Z,85.62
2018-12-06T22:37:43.978Z,85.62
2018-12-06T22:40:14.566Z,85.18
2018-12-06T22:42:45.569Z,85.29
2018-12-06T22:46:27.248Z,84.95
2018-12-06T22:48:57.839Z,85.51
2018-12-06T22:51:30.747Z,85.22
2018-12-06T22:54:01.403Z,85.26
2018-12-06T22:56:31.998Z,85.75
2018-12-06T22:59:03.683Z,85.41
2018-12-06T23:01:40.512Z,85.66
2018-12-06T23:04:11.387Z,85.35
2018-12-06T23:06:41.986Z,85.63
2018-12-06T23:09:12.628Z,85.59
2018-12-06T23:11:43.215Z,85.93
2018-12-06T23:14:14.511Z,86.16
2018-12-06T23:16:45.225Z,85.62
2018-12-06T23:19:15.885Z,85.88
2018-12-06T23:21:47.407Z,85.95
2018-12-06T23:24:18.794Z,85.83
2018-12-06T23:26:49.382Z,85.74
2018-12-06T23:32:38.471Z,85.42
2018-12-06T23:35:09.487Z,85.17
2018-12-06T23:37:40.095Z,85.31
2018-12-06T23:40:12.001Z,85.23
2018-12-06T23:42:42.990Z,85.12
2018-12-06T23:45:14.187Z,85.41
2018-12-06T23:47:44.806Z,85.34
2018-12-06T23:50:16.206Z,85.10
2018-12-06T23:52:46.839Z,85.61
2018-12-06T23:55:17.456Z,85.82
2018-12-06T23:57:49.144Z,85.62
